DTTA/TUN METAR and TAF weather

Enter ICAO airport designator
Station Type Date Time Source
DTTA METAR 2024/04/15 10:00 UTC NOAA

DTTA 151000Z 10010KT 030V160 9999 FEW023 25/12 Q1015


Station Type Date Time Source
DTTA Decoded METAR 2024/04/15 10:00 UTC NOAA

Tunis-Carthage, Tunisia (DTTA) 36-50N 010-14E 4M
Apr 15, 2024 - 06:00 AM EDT / 2024.04.15 1000 UTC
Wind: from the E (100 degrees) at 12 MPH (10 KT) (direction variable):0
Visibility: greater than 7 mile(s):0
Sky conditions: mostly clear
Temperature: 77 F (25 C)
Dew Point: 53 F (12 C)
Relative Humidity: 44%
Pressure (altimeter): 29.97 in. Hg (1015 hPa)
ob: DTTA 151000Z 10010KT 030V160 9999 FEW023 25/12 Q1015
cycle: 10

Station Type Date Time Source
DTTA TAF 2024/04/15 06:42 UTC NOAA